createdAt,value
2018-07-09T00:02:30.217Z,78.05
2018-07-09T00:05:02.635Z,78.67
2018-07-09T00:07:34.781Z,79.29
2018-07-09T00:10:07.270Z,80.17
2018-07-09T00:12:39.403Z,80.41
2018-07-09T00:15:11.576Z,81.49
2018-07-09T00:17:43.874Z,81.74
2018-07-09T00:20:16.114Z,81.97
2018-07-09T00:22:48.282Z,82.10
2018-07-09T00:25:20.567Z,82.41
2018-07-09T00:27:53.155Z,83.31
2018-07-09T00:30:25.523Z,82.88
2018-07-09T00:32:58.863Z,82.86
2018-07-09T00:35:31.003Z,82.57
2018-07-09T00:38:03.592Z,83.26
2018-07-09T00:40:36.196Z,83.48
2018-07-09T00:43:08.459Z,83.89
2018-07-09T00:45:40.665Z,83.92
2018-07-09T00:48:12.871Z,85.02
2018-07-09T00:50:45.090Z,85.48
2018-07-09T00:53:18.151Z,85.69
2018-07-09T00:55:50.290Z,85.17
2018-07-09T00:58:22.717Z,86.19
2018-07-09T01:00:54.965Z,85.89
2018-07-09T01:03:27.099Z,86.13
2018-07-09T01:05:59.279Z,85.61
2018-07-09T01:08:31.430Z,86.41
2018-07-09T01:11:15.168Z,87.12
2018-07-09T01:13:47.290Z,87.19
2018-07-09T01:16:19.735Z,86.67
2018-07-09T01:18:51.889Z,86.09
2018-07-09T01:21:25.200Z,86.13
2018-07-09T01:23:57.372Z,86.33
2018-07-09T01:26:29.502Z,86.28
2018-07-09T01:29:01.653Z,86.93
2018-07-09T01:31:33.822Z,86.60
2018-07-09T01:34:05.943Z,85.82
2018-07-09T01:36:37.999Z,86.07
2018-07-09T01:39:10.162Z,86.05
2018-07-09T01:41:42.419Z,86.78
2018-07-09T01:44:14.593Z,86.89
2018-07-09T01:46:46.784Z,86.72
2018-07-09T01:49:18.869Z,86.64
2018-07-09T01:51:54.208Z,86.13
2018-07-09T01:54:26.314Z,86.77
2018-07-09T01:56:58.466Z,87.09
2018-07-09T01:59:30.580Z,87.23
2018-07-09T02:02:02.697Z,87.77
2018-07-09T02:04:34.889Z,88.81
2018-07-09T02:07:07.628Z,88.89
2018-07-09T02:09:39.756Z,89.00
2018-07-09T02:12:11.916Z,89.52
2018-07-09T02:14:44.072Z,90.59
2018-07-09T02:17:16.271Z,90.08
2018-07-09T02:19:48.479Z,90.37
2018-07-09T02:22:20.672Z,90.12
2018-07-09T02:24:52.882Z,90.29
2018-07-09T02:27:25.046Z,90.92
2018-07-09T02:29:57.193Z,89.56
2018-07-09T02:32:29.353Z,89.90
2018-07-09T02:35:01.540Z,90.33
2018-07-09T02:37:33.679Z,89.85
2018-07-09T02:40:05.805Z,90.33
2018-07-09T02:42:37.931Z,91.25
2018-07-09T02:45:10.134Z,92.57
2018-07-09T02:47:42.273Z,92.70
2018-07-09T02:50:14.510Z,93.49
2018-07-09T02:52:46.687Z,94.10
2018-07-09T02:55:18.851Z,94.14
2018-07-09T02:57:51.042Z,94.09
2018-07-09T03:00:23.231Z,93.58
2018-07-09T03:02:55.407Z,94.27
2018-07-09T03:05:27.629Z,93.87
2018-07-09T03:07:59.800Z,93.89
2018-07-09T03:10:32.024Z,93.62
2018-07-09T03:13:04.209Z,93.73
2018-07-09T03:15:36.455Z,94.17
2018-07-09T03:18:08.628Z,94.43
2018-07-09T03:20:40.799Z,93.63
2018-07-09T03:23:13.001Z,93.20
2018-07-09T03:25:45.195Z,92.77
2018-07-09T03:28:17.335Z,93.09
2018-07-09T03:30:49.475Z,94.13
2018-07-09T03:33:21.655Z,94.25
2018-07-09T03:35:53.870Z,94.31
2018-07-09T03:38:26.024Z,93.58
2018-07-09T03:40:58.188Z,93.42
2018-07-09T03:43:30.337Z,92.60
2018-07-09T03:46:02.819Z,92.81
2018-07-09T03:48:34.980Z,91.86
2018-07-09T03:51:07.748Z,91.19
2018-07-09T03:53:40.007Z,91.49
2018-07-09T03:56:12.103Z,91.84
2018-07-09T03:58:44.221Z,91.62
2018-07-09T04:01:16.384Z,91.34
2018-07-09T04:03:48.517Z,91.67
2018-07-09T04:06:20.629Z,90.58
2018-07-09T04:08:52.736Z,89.46
2018-07-09T04:11:24.856Z,89.14
2018-07-09T04:13:56.993Z,88.41
2018-07-09T04:16:29.089Z,88.48
2018-07-09T04:19:01.200Z,87.70
2018-07-09T04:21:33.305Z,87.39
2018-07-09T04:24:05.454Z,86.50
2018-07-09T04:26:37.553Z,86.52
2018-07-09T04:29:09.647Z,85.60
2018-07-09T04:31:41.788Z,83.21
2018-07-09T04:34:13.933Z,77.79
2018-07-09T04:36:46.076Z,73.95
2018-07-09T04:39:18.233Z,68.85
2018-07-09T04:41:50.374Z,67.50
2018-07-09T04:44:22.462Z,65.79
2018-07-09T04:46:54.589Z,65.28
2018-07-09T04:49:26.683Z,62.97
2018-07-09T04:51:58.840Z,63.21
2018-07-09T04:54:31.024Z,61.35
2018-07-09T04:57:03.273Z,60.18
2018-07-09T04:59:35.625Z,59.75
2018-07-09T05:02:07.745Z,60.05
2018-07-09T05:04:39.907Z,58.05
2018-07-09T05:07:12.109Z,57.23
2018-07-09T05:09:44.262Z,55.77
2018-07-09T05:12:16.417Z,54.45
2018-07-09T05:14:48.602Z,54.80
2018-07-09T05:17:20.857Z,52.75
2018-07-09T05:19:53.040Z,52.07
2018-07-09T05:22:25.253Z,48.92
2018-07-09T05:24:57.429Z,48.28
2018-07-09T05:27:29.576Z,49.16
2018-07-09T05:30:01.910Z,50.33
2018-07-09T05:32:34.064Z,49.26
2018-07-09T05:35:06.683Z,49.57
2018-07-09T05:37:38.844Z,49.38
2018-07-09T05:40:11.012Z,48.52
2018-07-09T05:42:43.244Z,47.78
2018-07-09T05:45:15.461Z,43.37
2018-07-09T05:47:47.776Z,42.87
2018-07-09T05:50:20.068Z,44.32
2018-07-09T05:52:52.220Z,45.82
2018-07-09T05:55:24.386Z,46.55
2018-07-09T05:57:56.538Z,44.99
2018-07-09T06:00:28.719Z,44.23
2018-07-09T06:03:00.929Z,41.93
2018-07-09T06:05:33.157Z,44.22
2018-07-09T06:08:05.417Z,42.41
2018-07-09T06:10:37.568Z,42.65
2018-07-09T06:13:09.732Z,43.59
2018-07-09T06:15:41.856Z,42.00
2018-07-09T06:18:14.016Z,40.97
2018-07-09T06:20:46.192Z,41.19
2018-07-09T06:23:18.378Z,42.30
2018-07-09T06:25:50.546Z,41.89
2018-07-09T06:28:22.870Z,39.73
2018-07-09T06:30:55.123Z,41.47
2018-07-09T06:33:27.343Z,40.87
2018-07-09T06:35:59.593Z,41.00
2018-07-09T06:38:31.856Z,41.34
2018-07-09T06:41:04.124Z,39.06
2018-07-09T06:43:36.447Z,37.72
2018-07-09T06:46:08.663Z,37.75
2018-07-09T06:48:41.055Z,36.05
2018-07-09T06:51:13.295Z,35.29
2018-07-09T06:53:45.467Z,36.47
2018-07-09T06:56:17.634Z,37.90
2018-07-09T06:58:49.793Z,35.59
2018-07-09T07:01:21.932Z,35.65
2018-07-09T07:03:54.107Z,35.33
2018-07-09T07:06:26.246Z,35.36
2018-07-09T07:08:58.531Z,33.54
2018-07-09T07:11:30.537Z,34.28
2018-07-09T07:14:02.726Z,34.01
2018-07-09T07:16:34.836Z,32.48
2018-07-09T07:19:07.068Z,31.58
2018-07-09T07:21:39.266Z,32.94
2018-07-09T07:24:11.334Z,33.23
2018-07-09T07:26:43.566Z,33.07
2018-07-09T07:29:15.813Z,32.71
2018-07-09T07:31:47.929Z,31.97
2018-07-09T07:34:20.096Z,33.97
2018-07-09T07:36:52.324Z,34.42
2018-07-09T07:39:24.532Z,33.38
2018-07-09T07:41:56.558Z,33.02
2018-07-09T07:44:28.976Z,29.41
2018-07-09T07:47:01.236Z,28.47
2018-07-09T07:49:33.349Z,28.40
2018-07-09T07:52:05.517Z,30.10
2018-07-09T07:54:37.664Z,29.00
2018-07-09T07:57:10.035Z,30.04
2018-07-09T07:59:42.170Z,31.16
2018-07-09T08:02:14.382Z,28.13
2018-07-09T08:04:46.592Z,28.76
2018-07-09T08:07:18.841Z,28.90
2018-07-09T08:09:52.164Z,29.63
2018-07-09T08:14:57.486Z,30.25
2018-07-09T08:17:29.677Z,28.51
2018-07-09T08:20:01.960Z,29.44
2018-07-09T08:22:34.119Z,28.27
2018-07-09T08:25:06.325Z,28.41
2018-07-09T08:27:38.484Z,29.31
2018-07-09T08:30:10.739Z,28.12
2018-07-09T08:32:42.913Z,27.93
2018-07-09T08:35:15.094Z,28.10
2018-07-09T08:37:47.319Z,26.90
2018-07-09T08:40:19.533Z,27.42
2018-07-09T08:42:51.697Z,27.09
2018-07-09T08:45:23.847Z,27.88
2018-07-09T08:47:56.012Z,27.29
2018-07-09T08:50:28.145Z,26.99
2018-07-09T08:53:00.364Z,27.83
2018-07-09T08:55:32.568Z,27.31
2018-07-09T08:58:04.832Z,28.61
2018-07-09T09:00:37.033Z,26.19
2018-07-09T09:03:09.302Z,26.63
2018-07-09T09:05:41.407Z,24.83
2018-07-09T09:08:13.574Z,25.42
2018-07-09T09:13:49.064Z,28.65
2018-07-09T09:16:21.341Z,29.43
2018-07-09T09:18:53.551Z,30.09
2018-07-09T09:21:25.751Z,31.03
2018-07-09T09:23:57.919Z,30.83
2018-07-09T09:26:30.126Z,26.80
2018-07-09T09:29:03.367Z,28.79
2018-07-09T09:31:35.619Z,26.51
2018-07-09T09:34:07.699Z,27.14
2018-07-09T09:36:39.993Z,28.90
2018-07-09T09:39:13.104Z,25.91
2018-07-09T09:41:45.323Z,25.88
2018-07-09T09:44:17.540Z,28.66
2018-07-09T09:46:49.698Z,27.56
2018-07-09T09:49:21.888Z,30.44
2018-07-09T09:51:54.550Z,29.69
2018-07-09T09:54:26.863Z,31.31
2018-07-09T09:56:59.050Z,33.91
2018-07-09T09:59:31.198Z,33.14
2018-07-09T10:02:03.437Z,29.40
2018-07-09T10:04:35.601Z,30.97
2018-07-09T10:07:07.796Z,30.75
2018-07-09T10:09:39.952Z,32.58
2018-07-09T10:12:12.100Z,32.83
2018-07-09T10:14:44.317Z,34.02
2018-07-09T10:17:16.452Z,34.44
2018-07-09T10:19:48.583Z,34.84
2018-07-09T10:22:20.698Z,33.07
2018-07-09T10:24:52.935Z,30.32
2018-07-09T10:27:25.235Z,30.58
2018-07-09T10:29:57.439Z,26.37
2018-07-09T10:32:29.579Z,26.59
2018-07-09T10:35:03.134Z,26.26
2018-07-09T10:37:35.411Z,27.58
2018-07-09T10:40:07.520Z,26.69
2018-07-09T10:42:39.740Z,28.02
2018-07-09T10:45:11.969Z,29.67
2018-07-09T10:47:44.159Z,30.18
2018-07-09T10:50:16.307Z,32.07
2018-07-09T10:52:48.468Z,30.76
2018-07-09T10:55:20.780Z,30.85
2018-07-09T10:57:52.851Z,30.09
2018-07-09T11:00:25.044Z,28.13
2018-07-09T11:02:57.262Z,30.10
2018-07-09T11:05:29.556Z,29.91
2018-07-09T11:08:02.881Z,29.67
2018-07-09T11:10:36.111Z,29.55
2018-07-09T11:13:08.452Z,26.92
2018-07-09T11:15:40.657Z,29.31
2018-07-09T11:18:12.833Z,28.67
2018-07-09T11:20:44.999Z,28.58
2018-07-09T11:23:17.240Z,28.92
2018-07-09T11:25:49.362Z,29.37
2018-07-09T11:28:21.551Z,30.52
2018-07-09T11:30:53.700Z,29.07
2018-07-09T11:33:25.946Z,28.00
2018-07-09T11:36:00.265Z,29.83
2018-07-09T11:38:32.791Z,29.85
2018-07-09T11:41:05.305Z,31.20
2018-07-09T11:43:38.133Z,31.42
2018-07-09T11:46:14.220Z,32.52
2018-07-09T11:48:46.348Z,32.42
2018-07-09T11:51:18.474Z,30.32
2018-07-09T11:53:50.640Z,29.34
2018-07-09T11:56:22.894Z,28.47
2018-07-09T11:58:58.186Z,28.16
2018-07-09T12:01:30.376Z,28.88
2018-07-09T12:04:02.579Z,26.84
2018-07-09T12:06:34.775Z,28.35
2018-07-09T12:09:06.989Z,30.59
2018-07-09T12:11:39.258Z,32.47
2018-07-09T12:14:11.489Z,32.19
2018-07-09T12:16:43.644Z,31.85
2018-07-09T12:19:15.765Z,32.17
2018-07-09T12:21:47.918Z,30.37
2018-07-09T12:24:20.089Z,31.68
2018-07-09T12:26:52.230Z,31.65
2018-07-09T12:29:24.384Z,30.69
2018-07-09T12:31:56.692Z,30.78
2018-07-09T12:34:28.853Z,32.53
2018-07-09T12:37:01.225Z,33.29
2018-07-09T12:39:33.483Z,33.57
2018-07-09T12:42:05.689Z,31.35
2018-07-09T12:44:37.973Z,31.85
2018-07-09T12:47:10.131Z,28.80
2018-07-09T12:49:42.322Z,29.04
2018-07-09T12:52:14.521Z,27.70
2018-07-09T12:54:46.667Z,29.04
2018-07-09T12:57:18.818Z,27.71
2018-07-09T12:59:51.005Z,28.04
2018-07-09T13:02:23.120Z,26.58
2018-07-09T13:04:55.169Z,24.78
2018-07-09T13:07:27.343Z,23.91
2018-07-09T13:09:59.491Z,26.35
2018-07-09T13:12:31.551Z,27.73
2018-07-09T13:15:03.622Z,25.12
2018-07-09T13:17:36.864Z,27.07
2018-07-09T13:20:08.986Z,25.14
2018-07-09T13:22:41.056Z,25.67
2018-07-09T13:25:13.216Z,26.13
2018-07-09T13:27:45.335Z,25.57
2018-07-09T13:30:17.445Z,28.91
2018-07-09T13:32:49.574Z,27.44
2018-07-09T13:35:21.965Z,26.61
2018-07-09T13:37:54.069Z,28.82
2018-07-09T13:40:26.195Z,28.95
2018-07-09T13:42:58.281Z,29.12
2018-07-09T13:45:30.404Z,29.22
2018-07-09T13:48:02.568Z,24.52
2018-07-09T13:50:35.184Z,24.96
2018-07-09T13:53:07.323Z,25.69
2018-07-09T13:55:39.546Z,24.21
2018-07-09T13:58:11.689Z,23.42
2018-07-09T14:00:43.892Z,22.71
2018-07-09T14:03:16.041Z,26.07
2018-07-09T14:05:48.299Z,26.54
2018-07-09T14:08:20.491Z,29.04
2018-07-09T14:10:52.658Z,30.57
2018-07-09T14:13:24.800Z,32.47
2018-07-09T14:15:56.984Z,31.46
2018-07-09T14:18:29.219Z,33.04
2018-07-09T14:21:01.363Z,32.39
2018-07-09T14:23:33.598Z,33.30
2018-07-09T14:26:05.834Z,33.78
2018-07-09T14:28:37.986Z,34.20
2018-07-09T14:31:12.704Z,34.07
2018-07-09T14:33:44.975Z,35.26
2018-07-09T14:36:17.143Z,34.33
2018-07-09T14:38:49.341Z,34.87
2018-07-09T14:41:21.508Z,35.55
2018-07-09T14:43:54.800Z,36.03
2018-07-09T14:46:28.321Z,34.92
2018-07-09T14:49:00.589Z,34.84
2018-07-09T14:51:32.781Z,34.75
2018-07-09T14:54:05.048Z,35.23
2018-07-09T14:56:37.211Z,35.37
2018-07-09T14:59:09.471Z,36.40
2018-07-09T15:01:41.640Z,35.95
2018-07-09T15:04:13.866Z,35.11
2018-07-09T15:06:45.918Z,36.56
2018-07-09T15:09:18.025Z,33.86
2018-07-09T15:11:50.146Z,31.82
2018-07-09T15:14:23.122Z,29.25
2018-07-09T15:16:55.275Z,29.63
2018-07-09T15:19:27.365Z,30.99
2018-07-09T15:21:59.536Z,29.48
2018-07-09T15:24:31.765Z,30.12
2018-07-09T15:27:03.904Z,29.35
2018-07-09T15:29:36.006Z,32.25
2018-07-09T15:32:18.384Z,30.37
2018-07-09T15:34:50.944Z,29.78
2018-07-09T15:37:24.339Z,27.56
2018-07-09T15:39:56.435Z,27.55
2018-07-09T15:42:28.536Z,26.95
2018-07-09T15:45:00.648Z,27.46
2018-07-09T15:47:32.811Z,26.91
2018-07-09T15:50:06.012Z,26.43
2018-07-09T15:52:39.091Z,26.54
2018-07-09T15:55:12.289Z,27.35
2018-07-09T15:57:44.453Z,29.39
2018-07-09T16:00:16.576Z,31.82
2018-07-09T16:02:48.712Z,32.72
2018-07-09T16:05:20.926Z,34.35
2018-07-09T16:07:53.072Z,35.62
2018-07-09T16:10:25.292Z,35.92
2018-07-09T16:12:57.692Z,37.51
2018-07-09T16:15:29.760Z,37.74
2018-07-09T16:18:02.179Z,36.63
2018-07-09T16:20:34.292Z,37.89
2018-07-09T16:23:06.510Z,37.97
2018-07-09T16:25:38.685Z,39.28
2018-07-09T16:28:10.840Z,38.93
2018-07-09T16:30:43.021Z,38.29
2018-07-09T16:33:15.477Z,38.93
2018-07-09T16:35:47.614Z,39.31
2018-07-09T16:38:20.161Z,38.40
2018-07-09T16:40:52.424Z,39.57
2018-07-09T16:43:24.700Z,40.19
2018-07-09T16:45:56.893Z,40.29
2018-07-09T16:48:29.232Z,40.22
2018-07-09T16:51:01.419Z,41.26
2018-07-09T16:53:33.631Z,40.62
2018-07-09T16:56:06.045Z,41.70
2018-07-09T16:58:38.275Z,41.89
2018-07-09T17:01:10.491Z,40.51
2018-07-09T17:03:42.679Z,40.67
2018-07-09T17:06:14.815Z,41.14
2018-07-09T17:08:46.983Z,41.20
2018-07-09T17:11:19.188Z,40.86
2018-07-09T17:13:51.371Z,41.15
2018-07-09T17:16:23.511Z,41.69
2018-07-09T17:18:55.705Z,42.34
2018-07-09T17:21:27.924Z,41.67
2018-07-09T17:24:00.272Z,41.94
2018-07-09T17:26:32.555Z,42.57
2018-07-09T17:29:04.635Z,43.27
2018-07-09T17:31:36.802Z,43.45
2018-07-09T17:34:08.959Z,43.76
2018-07-09T17:36:41.155Z,43.51
2018-07-09T17:39:13.360Z,43.42
2018-07-09T17:41:45.552Z,44.33
2018-07-09T17:44:17.637Z,44.70
2018-07-09T17:46:49.764Z,43.69
2018-07-09T17:49:21.971Z,44.57
2018-07-09T17:51:54.205Z,43.31
2018-07-09T17:54:26.407Z,43.36
2018-07-09T17:56:58.655Z,42.70
2018-07-09T17:59:30.846Z,43.07
2018-07-09T18:02:03.091Z,43.71
2018-07-09T18:04:35.372Z,43.54
2018-07-09T18:07:07.551Z,45.58
2018-07-09T18:09:39.700Z,45.17
2018-07-09T18:12:11.810Z,44.74
2018-07-09T18:14:43.991Z,45.03
2018-07-09T18:17:16.190Z,44.98
2018-07-09T18:19:48.398Z,44.60
2018-07-09T18:22:21.208Z,45.15
2018-07-09T18:24:53.410Z,45.35
2018-07-09T18:27:25.682Z,45.66
2018-07-09T18:29:57.804Z,45.53
2018-07-09T18:32:29.935Z,45.61
2018-07-09T18:35:02.018Z,46.76
2018-07-09T18:37:34.149Z,45.80
2018-07-09T18:40:06.321Z,45.74
2018-07-09T18:42:38.470Z,46.55
2018-07-09T18:45:10.610Z,46.03
2018-07-09T18:47:42.670Z,46.96
2018-07-09T18:50:14.818Z,47.53
2018-07-09T18:52:46.998Z,48.94
2018-07-09T18:55:19.161Z,49.15
2018-07-09T18:57:51.409Z,50.36
2018-07-09T19:00:23.525Z,49.94
2018-07-09T19:02:55.690Z,49.13
2018-07-09T19:05:41.869Z,49.08
2018-07-09T19:08:14.068Z,48.62
2018-07-09T19:10:46.283Z,48.58
2018-07-09T19:13:18.519Z,49.13
2018-07-09T19:15:50.688Z,49.30
2018-07-09T19:18:34.405Z,50.90
2018-07-09T19:21:30.679Z,53.06
2018-07-09T19:24:03.021Z,55.03
2018-07-09T19:26:34.409Z,54.76
2018-07-09T19:29:05.570Z,55.69
2018-07-09T19:31:36.697Z,56.74
2018-07-09T19:34:08.274Z,56.53
2018-07-09T19:36:39.506Z,56.61
2018-07-09T19:39:11.417Z,56.67
2018-07-09T19:41:42.648Z,57.64
2018-07-09T19:44:14.974Z,57.93
2018-07-09T19:46:46.135Z,57.56
2018-07-09T19:49:17.259Z,57.79
2018-07-09T19:51:48.407Z,57.73
2018-07-09T19:54:19.528Z,55.85
2018-07-09T19:56:50.662Z,55.38
2018-07-09T19:59:21.828Z,55.76
2018-07-09T20:01:52.960Z,55.36
2018-07-09T20:04:24.201Z,55.27
2018-07-09T20:06:55.449Z,54.87
2018-07-09T20:09:32.290Z,54.54
2018-07-09T20:13:06.740Z,54.83
2018-07-09T20:15:43.584Z,56.52
2018-07-09T20:18:14.742Z,57.14
2018-07-09T20:20:46.018Z,56.19
2018-07-09T20:23:17.155Z,55.96
2018-07-09T20:25:48.525Z,56.43
2018-07-09T20:28:19.696Z,56.23
2018-07-09T20:30:50.933Z,55.94
2018-07-09T20:33:22.058Z,56.76
2018-07-09T20:35:53.266Z,56.57
2018-07-09T20:38:24.459Z,56.91
2018-07-09T20:40:55.794Z,57.47
2018-07-09T20:43:27.012Z,57.80
2018-07-09T20:45:58.174Z,58.31
2018-07-09T20:48:29.365Z,58.90
2018-07-09T20:51:00.506Z,59.12
2018-07-09T20:53:31.661Z,58.80
2018-07-09T20:56:02.933Z,59.02
2018-07-09T20:58:34.857Z,59.20
2018-07-09T21:01:06.011Z,58.68
2018-07-09T21:03:37.300Z,59.21
2018-07-09T21:06:10.648Z,59.33
2018-07-09T21:08:41.860Z,59.40
2018-07-09T21:11:13.061Z,57.36
2018-07-09T21:13:44.219Z,57.15
2018-07-09T21:16:15.527Z,57.09
2018-07-09T21:18:46.560Z,55.57
2018-07-09T21:21:17.790Z,54.59
2018-07-09T21:23:48.960Z,53.00
2018-07-09T21:26:20.076Z,52.58
2018-07-09T21:28:51.225Z,52.81
2018-07-09T21:31:22.358Z,51.93
2018-07-09T21:33:53.475Z,51.64
2018-07-09T21:36:24.588Z,52.56
2018-07-09T21:38:55.714Z,52.90
2018-07-09T21:41:26.828Z,52.70
2018-07-09T21:43:57.972Z,53.29
2018-07-09T21:46:29.168Z,53.66
2018-07-09T21:49:00.300Z,52.00
2018-07-09T21:51:31.415Z,52.29
2018-07-09T21:54:02.556Z,51.29
2018-07-09T21:56:33.682Z,51.11
2018-07-09T21:59:04.827Z,51.30
2018-07-09T22:01:35.981Z,52.18
2018-07-09T22:04:07.135Z,51.96
2018-07-09T22:06:38.295Z,52.54
2018-07-09T22:09:09.388Z,51.53
2018-07-09T22:11:40.520Z,51.83
2018-07-09T22:14:11.738Z,52.30
2018-07-09T22:16:42.913Z,53.58
2018-07-09T22:19:14.667Z,53.85
2018-07-09T22:21:45.861Z,54.12
2018-07-09T22:24:16.998Z,54.93
2018-07-09T22:26:48.128Z,54.50
2018-07-09T22:29:19.251Z,55.35
2018-07-09T22:31:51.439Z,55.52
2018-07-09T22:34:23.570Z,55.10
2018-07-09T22:36:55.776Z,53.52
2018-07-09T22:39:28.041Z,53.25
2018-07-09T22:42:00.283Z,53.06
2018-07-09T22:44:32.456Z,50.18
2018-07-09T22:47:04.590Z,50.82
2018-07-09T22:49:36.840Z,49.56
2018-07-09T22:52:08.977Z,48.18
2018-07-09T22:54:41.181Z,49.99
2018-07-09T22:57:13.388Z,49.85
2018-07-09T22:59:45.615Z,49.85
2018-07-09T23:02:17.781Z,49.85
2018-07-09T23:04:49.963Z,49.61
2018-07-09T23:07:22.116Z,49.04
2018-07-09T23:10:14.605Z,49.29
2018-07-09T23:14:23.942Z,48.37
2018-07-09T23:17:07.643Z,47.80
2018-07-09T23:21:55.268Z,47.27
2018-07-09T23:24:26.892Z,48.13
2018-07-09T23:26:58.070Z,47.30
2018-07-09T23:29:29.233Z,46.33
2018-07-09T23:32:00.470Z,46.56
2018-07-09T23:34:31.706Z,46.51
2018-07-09T23:37:02.862Z,45.96
2018-07-09T23:39:33.983Z,46.52
2018-07-09T23:42:05.171Z,46.57
2018-07-09T23:44:36.263Z,45.82
2018-07-09T23:47:07.415Z,46.51
2018-07-09T23:49:38.554Z,47.13
2018-07-09T23:52:09.707Z,47.59
2018-07-09T23:54:40.863Z,47.55
2018-07-09T23:57:54.896Z,48.37
